sensor_id;sensor_type;location;lat;lon;timestamp;P1;durP1;ratioP1;P2;durP2;ratioP2
3052;SDS011;1536;51.098;6.414;2023-04-25T00:00:35;10.38;;;5.80;;
3052;SDS011;1536;51.098;6.414;2023-04-25T00:03:03;8.93;;;5.50;;
3052;SDS011;1536;51.098;6.414;2023-04-25T00:05:30;11.68;;;6.10;;
3052;SDS011;1536;51.098;6.414;2023-04-25T00:07:57;9.55;;;5.60;;
3052;SDS011;1536;51.098;6.414;2023-04-25T00:10:24;10.45;;;5.53;;
3052;SDS011;1536;51.098;6.414;2023-04-25T00:12:51;7.05;;;5.20;;
3052;SDS011;1536;51.098;6.414;2023-04-25T00:15:18;12.23;;;5.97;;
3052;SDS011;1536;51.098;6.414;2023-04-25T00:17:45;8.20;;;5.80;;
3052;SDS011;1536;51.098;6.414;2023-04-25T00:20:14;8.90;;;5.40;;
3052;SDS011;1536;51.098;6.414;2023-04-25T00:22:41;12.65;;;5.75;;
3052;SDS011;1536;51.098;6.414;2023-04-25T00:25:08;11.27;;;6.03;;
3052;SDS011;1536;51.098;6.414;2023-04-25T00:27:35;11.18;;;5.35;;
3052;SDS011;1536;51.098;6.414;2023-04-25T00:30:04;10.68;;;5.05;;
3052;SDS011;1536;51.098;6.414;2023-04-25T00:32:32;6.00;;;4.65;;
3052;SDS011;1536;51.098;6.414;2023-04-25T00:34:58;7.20;;;5.00;;
3052;SDS011;1536;51.098;6.414;2023-04-25T00:37:26;10.77;;;5.28;;
3052;SDS011;1536;51.098;6.414;2023-04-25T00:39:53;10.20;;;6.07;;
3052;SDS011;1536;51.098;6.414;2023-04-25T00:42:20;13.07;;;5.90;;
3052;SDS011;1536;51.098;6.414;2023-04-25T00:44:47;16.23;;;7.10;;
3052;SDS011;1536;51.098;6.414;2023-04-25T00:50:03;10.50;;;5.47;;
3052;SDS011;1536;51.098;6.414;2023-04-25T00:52:32;12.95;;;5.80;;
3052;SDS011;1536;51.098;6.414;2023-04-25T00:54:59;15.45;;;6.60;;
3052;SDS011;1536;51.098;6.414;2023-04-25T00:57:27;13.27;;;6.53;;
3052;SDS011;1536;51.098;6.414;2023-04-25T00:59:53;12.70;;;6.70;;
3052;SDS011;1536;51.098;6.414;2023-04-25T01:02:20;12.35;;;5.32;;
3052;SDS011;1536;51.098;6.414;2023-04-25T01:04:48;15.10;;;7.22;;
3052;SDS011;1536;51.098;6.414;2023-04-25T01:07:15;13.35;;;7.05;;
3052;SDS011;1536;51.098;6.414;2023-04-25T01:09:43;19.50;;;6.65;;
3052;SDS011;1536;51.098;6.414;2023-04-25T01:12:10;11.48;;;7.00;;
3052;SDS011;1536;51.098;6.414;2023-04-25T01:14:37;11.63;;;6.70;;
3052;SDS011;1536;51.098;6.414;2023-04-25T01:17:03;10.93;;;6.57;;
3052;SDS011;1536;51.098;6.414;2023-04-25T01:19:32;15.63;;;7.05;;
3052;SDS011;1536;51.098;6.414;2023-04-25T01:22:00;10.02;;;6.32;;
3052;SDS011;1536;51.098;6.414;2023-04-25T01:24:28;13.95;;;6.32;;
3052;SDS011;1536;51.098;6.414;2023-04-25T01:26:55;14.23;;;7.00;;
3052;SDS011;1536;51.098;6.414;2023-04-25T01:29:22;15.32;;;6.60;;
3052;SDS011;1536;51.098;6.414;2023-04-25T01:31:49;13.30;;;6.72;;
3052;SDS011;1536;51.098;6.414;2023-04-25T01:34:18;10.40;;;5.25;;
3052;SDS011;1536;51.098;6.414;2023-04-25T01:36:45;12.23;;;5.97;;
3052;SDS011;1536;51.098;6.414;2023-04-25T01:39:16;12.35;;;7.00;;
3052;SDS011;1536;51.098;6.414;2023-04-25T01:41:43;10.80;;;6.28;;
3052;SDS011;1536;51.098;6.414;2023-04-25T01:44:11;11.77;;;6.15;;
3052;SDS011;1536;51.098;6.414;2023-04-25T01:46:38;18.60;;;7.72;;
3052;SDS011;1536;51.098;6.414;2023-04-25T01:49:05;12.35;;;6.60;;
3052;SDS011;1536;51.098;6.414;2023-04-25T01:51:32;15.90;;;7.80;;
3052;SDS011;1536;51.098;6.414;2023-04-25T01:53:59;11.55;;;6.85;;
3052;SDS011;1536;51.098;6.414;2023-04-25T01:56:30;9.13;;;5.70;;
3052;SDS011;1536;51.098;6.414;2023-04-25T01:58:57;10.63;;;6.90;;
3052;SDS011;1536;51.098;6.414;2023-04-25T02:01:24;8.00;;;6.32;;
3052;SDS011;1536;51.098;6.414;2023-04-25T02:03:51;16.85;;;6.75;;
3052;SDS011;1536;51.098;6.414;2023-04-25T02:06:18;13.45;;;6.72;;
3052;SDS011;1536;51.098;6.414;2023-04-25T02:08:44;11.98;;;6.43;;
3052;SDS011;1536;51.098;6.414;2023-04-25T02:11:11;19.98;;;6.20;;
3052;SDS011;1536;51.098;6.414;2023-04-25T02:13:39;9.45;;;6.07;;
3052;SDS011;1536;51.098;6.414;2023-04-25T02:16:06;10.13;;;5.80;;
3052;SDS011;1536;51.098;6.414;2023-04-25T02:18:33;9.68;;;5.25;;
3052;SDS011;1536;51.098;6.414;2023-04-25T02:21:02;11.52;;;6.47;;
3052;SDS011;1536;51.098;6.414;2023-04-25T02:23:29;11.05;;;6.88;;
3052;SDS011;1536;51.098;6.414;2023-04-25T02:25:56;10.77;;;6.50;;
3052;SDS011;1536;51.098;6.414;2023-04-25T02:28:23;11.77;;;6.15;;
3052;SDS011;1536;51.098;6.414;2023-04-25T02:30:51;17.48;;;7.00;;
3052;SDS011;1536;51.098;6.414;2023-04-25T02:33:18;15.88;;;7.38;;
3052;SDS011;1536;51.098;6.414;2023-04-25T02:35:46;8.27;;;6.22;;
3052;SDS011;1536;51.098;6.414;2023-04-25T02:38:13;14.25;;;5.53;;
3052;SDS011;1536;51.098;6.414;2023-04-25T02:40:39;9.65;;;7.05;;
3052;SDS011;1536;51.098;6.414;2023-04-25T02:43:06;9.85;;;6.28;;
3052;SDS011;1536;51.098;6.414;2023-04-25T02:45:33;9.38;;;5.57;;
3052;SDS011;1536;51.098;6.414;2023-04-25T02:48:01;10.63;;;6.40;;
3052;SDS011;1536;51.098;6.414;2023-04-25T02:50:28;14.60;;;6.88;;
3052;SDS011;1536;51.098;6.414;2023-04-25T02:52:55;9.10;;;6.18;;
3052;SDS011;1536;51.098;6.414;2023-04-25T02:55:22;13.00;;;6.57;;
3052;SDS011;1536;51.098;6.414;2023-04-25T02:57:48;12.23;;;6.40;;
3052;SDS011;1536;51.098;6.414;2023-04-25T03:00:15;14.85;;;7.05;;
3052;SDS011;1536;51.098;6.414;2023-04-25T03:02:42;9.52;;;6.03;;
3052;SDS011;1536;51.098;6.414;2023-04-25T03:05:11;10.27;;;6.45;;
3052;SDS011;1536;51.098;6.414;2023-04-25T03:07:37;11.25;;;7.20;;
3052;SDS011;1536;51.098;6.414;2023-04-25T03:10:05;12.10;;;6.85;;
3052;SDS011;1536;51.098;6.414;2023-04-25T03:12:32;16.48;;;7.53;;
3052;SDS011;1536;51.098;6.414;2023-04-25T03:14:59;12.43;;;6.57;;
3052;SDS011;1536;51.098;6.414;2023-04-25T03:17:28;16.23;;;8.15;;
3052;SDS011;1536;51.098;6.414;2023-04-25T03:19:55;13.65;;;6.82;;
3052;SDS011;1536;51.098;6.414;2023-04-25T03:22:24;12.15;;;7.10;;
3052;SDS011;1536;51.098;6.414;2023-04-25T03:24:50;15.68;;;6.55;;
3052;SDS011;1536;51.098;6.414;2023-04-25T03:27:17;13.32;;;6.97;;
3052;SDS011;1536;51.098;6.414;2023-04-25T03:29:45;12.23;;;6.53;;
3052;SDS011;1536;51.098;6.414;2023-04-25T03:32:13;13.05;;;8.32;;
3052;SDS011;1536;51.098;6.414;2023-04-25T03:34:39;17.98;;;6.88;;
3052;SDS011;1536;51.098;6.414;2023-04-25T03:37:06;13.05;;;7.47;;
3052;SDS011;1536;51.098;6.414;2023-04-25T03:39:34;10.75;;;7.15;;
3052;SDS011;1536;51.098;6.414;2023-04-25T03:42:01;15.65;;;7.28;;
3052;SDS011;1536;51.098;6.414;2023-04-25T03:44:28;13.77;;;7.35;;
3052;SDS011;1536;51.098;6.414;2023-04-25T03:46:55;14.02;;;6.75;;
3052;SDS011;1536;51.098;6.414;2023-04-25T03:49:21;16.10;;;7.53;;
3052;SDS011;1536;51.098;6.414;2023-04-25T03:51:48;12.23;;;7.13;;
3052;SDS011;1536;51.098;6.414;2023-04-25T03:54:15;12.70;;;7.35;;
3052;SDS011;1536;51.098;6.414;2023-04-25T03:56:43;13.15;;;6.95;;
3052;SDS011;1536;51.098;6.414;2023-04-25T03:59:09;13.90;;;6.82;;
3052;SDS011;1536;51.098;6.414;2023-04-25T04:01:36;11.02;;;7.13;;
3052;SDS011;1536;51.098;6.414;2023-04-25T04:04:03;14.90;;;7.13;;
3052;SDS011;1536;51.098;6.414;2023-04-25T04:06:30;17.05;;;7.78;;
3052;SDS011;1536;51.098;6.414;2023-04-25T04:08:58;11.23;;;7.35;;
3052;SDS011;1536;51.098;6.414;2023-04-25T04:11:25;14.35;;;6.95;;
3052;SDS011;1536;51.098;6.414;2023-04-25T04:13:53;9.75;;;6.90;;
3052;SDS011;1536;51.098;6.414;2023-04-25T04:16:19;10.43;;;6.28;;
3052;SDS011;1536;51.098;6.414;2023-04-25T04:18:46;15.68;;;6.85;;
3052;SDS011;1536;51.098;6.414;2023-04-25T04:21:13;11.95;;;6.63;;
3052;SDS011;1536;51.098;6.414;2023-04-25T04:23:40;11.55;;;6.47;;
3052;SDS011;1536;51.098;6.414;2023-04-25T04:26:06;13.85;;;6.43;;
3052;SDS011;1536;51.098;6.414;2023-04-25T04:28:33;11.05;;;7.13;;
3052;SDS011;1536;51.098;6.414;2023-04-25T04:31:02;15.65;;;6.93;;
3052;SDS011;1536;51.098;6.414;2023-04-25T04:33:28;12.35;;;7.10;;
3052;SDS011;1536;51.098;6.414;2023-04-25T04:35:56;12.88;;;5.93;;
3052;SDS011;1536;51.098;6.414;2023-04-25T04:38:24;14.40;;;6.93;;
3052;SDS011;1536;51.098;6.414;2023-04-25T04:40:51;14.15;;;7.03;;
3052;SDS011;1536;51.098;6.414;2023-04-25T04:43:18;14.07;;;6.47;;
3052;SDS011;1536;51.098;6.414;2023-04-25T04:45:45;14.55;;;5.97;;
3052;SDS011;1536;51.098;6.414;2023-04-25T04:48:14;12.88;;;7.10;;
3052;SDS011;1536;51.098;6.414;2023-04-25T04:50:42;11.98;;;6.68;;
3052;SDS011;1536;51.098;6.414;2023-04-25T04:53:10;13.52;;;6.80;;
3052;SDS011;1536;51.098;6.414;2023-04-25T04:55:36;15.18;;;6.57;;
3052;SDS011;1536;51.098;6.414;2023-04-25T04:58:03;16.27;;;7.03;;
3052;SDS011;1536;51.098;6.414;2023-04-25T05:00:30;18.25;;;6.80;;
3052;SDS011;1536;51.098;6.414;2023-04-25T05:02:58;14.20;;;6.65;;
3052;SDS011;1536;51.098;6.414;2023-04-25T05:05:26;17.40;;;6.40;;
3052;SDS011;1536;51.098;6.414;2023-04-25T05:07:53;17.05;;;6.53;;
3052;SDS011;1536;51.098;6.414;2023-04-25T05:10:20;17.27;;;6.35;;
3052;SDS011;1536;51.098;6.414;2023-04-25T05:12:46;14.10;;;6.07;;
3052;SDS011;1536;51.098;6.414;2023-04-25T05:15:13;12.48;;;5.72;;
3052;SDS011;1536;51.098;6.414;2023-04-25T05:17:40;20.70;;;7.65;;
3052;SDS011;1536;51.098;6.414;2023-04-25T05:20:07;15.25;;;6.15;;
3052;SDS011;1536;51.098;6.414;2023-04-25T05:22:36;11.65;;;6.20;;
3052;SDS011;1536;51.098;6.414;2023-04-25T05:25:02;11.35;;;5.88;;
3052;SDS011;1536;51.098;6.414;2023-04-25T05:27:30;12.73;;;5.60;;
3052;SDS011;1536;51.098;6.414;2023-04-25T05:29:57;11.90;;;6.93;;
3052;SDS011;1536;51.098;6.414;2023-04-25T05:32:24;14.90;;;7.20;;
3052;SDS011;1536;51.098;6.414;2023-04-25T05:34:50;15.52;;;5.68;;
3052;SDS011;1536;51.098;6.414;2023-04-25T05:37:17;11.50;;;5.78;;
3052;SDS011;1536;51.098;6.414;2023-04-25T05:39:45;14.90;;;6.32;;
3052;SDS011;1536;51.098;6.414;2023-04-25T05:42:12;20.05;;;6.68;;
3052;SDS011;1536;51.098;6.414;2023-04-25T05:44:39;12.77;;;5.72;;
3052;SDS011;1536;51.098;6.414;2023-04-25T05:47:06;14.48;;;6.07;;
3052;SDS011;1536;51.098;6.414;2023-04-25T05:49:33;15.63;;;6.35;;
3052;SDS011;1536;51.098;6.414;2023-04-25T05:52:00;13.38;;;5.97;;
3052;SDS011;1536;51.098;6.414;2023-04-25T05:54:27;14.70;;;7.05;;
3052;SDS011;1536;51.098;6.414;2023-04-25T05:56:55;15.60;;;6.88;;
3052;SDS011;1536;51.098;6.414;2023-04-25T05:59:22;15.43;;;5.57;;
3052;SDS011;1536;51.098;6.414;2023-04-25T06:01:49;10.13;;;5.60;;
3052;SDS011;1536;51.098;6.414;2023-04-25T06:04:16;14.38;;;7.88;;
3052;SDS011;1536;51.098;6.414;2023-04-25T06:06:43;12.25;;;5.53;;
3052;SDS011;1536;51.098;6.414;2023-04-25T06:09:10;11.93;;;5.82;;
3052;SDS011;1536;51.098;6.414;2023-04-25T06:11:37;17.17;;;5.57;;
3052;SDS011;1536;51.098;6.414;2023-04-25T06:14:05;22.50;;;7.07;;
3052;SDS011;1536;51.098;6.414;2023-04-25T06:16:32;13.70;;;6.00;;
3052;SDS011;1536;51.098;6.414;2023-04-25T06:18:59;17.42;;;5.47;;
3052;SDS011;1536;51.098;6.414;2023-04-25T06:21:25;12.23;;;5.30;;
3052;SDS011;1536;51.098;6.414;2023-04-25T06:23:52;13.00;;;6.38;;
3052;SDS011;1536;51.098;6.414;2023-04-25T06:26:19;10.75;;;5.57;;
3052;SDS011;1536;51.098;6.414;2023-04-25T06:28:45;14.57;;;6.78;;
3052;SDS011;1536;51.098;6.414;2023-04-25T06:31:13;13.32;;;4.75;;
3052;SDS011;1536;51.098;6.414;2023-04-25T06:33:40;13.90;;;5.93;;
3052;SDS011;1536;51.098;6.414;2023-04-25T06:36:07;15.02;;;5.15;;
3052;SDS011;1536;51.098;6.414;2023-04-25T06:38:33;17.40;;;6.28;;
3052;SDS011;1536;51.098;6.414;2023-04-25T06:41:00;10.82;;;4.85;;
3052;SDS011;1536;51.098;6.414;2023-04-25T06:43:27;18.55;;;5.47;;
3052;SDS011;1536;51.098;6.414;2023-04-25T06:45:57;12.68;;;4.88;;
3052;SDS011;1536;51.098;6.414;2023-04-25T06:48:26;10.15;;;4.45;;
3052;SDS011;1536;51.098;6.414;2023-04-25T06:50:52;11.43;;;5.03;;
3052;SDS011;1536;51.098;6.414;2023-04-25T06:53:19;20.05;;;6.82;;
3052;SDS011;1536;51.098;6.414;2023-04-25T06:55:46;11.70;;;5.30;;
3052;SDS011;1536;51.098;6.414;2023-04-25T06:58:13;9.82;;;5.13;;
3052;SDS011;1536;51.098;6.414;2023-04-25T07:00:39;16.30;;;4.85;;
3052;SDS011;1536;51.098;6.414;2023-04-25T07:03:06;19.10;;;5.72;;
3052;SDS011;1536;51.098;6.414;2023-04-25T07:05:35;22.27;;;5.57;;
3052;SDS011;1536;51.098;6.414;2023-04-25T07:08:01;13.68;;;5.35;;
3052;SDS011;1536;51.098;6.414;2023-04-25T07:10:28;16.45;;;5.25;;
3052;SDS011;1536;51.098;6.414;2023-04-25T07:12:55;16.73;;;4.93;;
3052;SDS011;1536;51.098;6.414;2023-04-25T07:15:22;11.60;;;4.88;;
3052;SDS011;1536;51.098;6.414;2023-04-25T07:17:49;13.57;;;5.13;;
3052;SDS011;1536;51.098;6.414;2023-04-25T07:20:16;14.45;;;5.00;;
3052;SDS011;1536;51.098;6.414;2023-04-25T07:22:44;14.25;;;5.80;;
3052;SDS011;1536;51.098;6.414;2023-04-25T07:25:11;20.00;;;5.18;;
3052;SDS011;1536;51.098;6.414;2023-04-25T07:27:39;11.98;;;5.10;;
3052;SDS011;1536;51.098;6.414;2023-04-25T07:30:07;11.50;;;5.10;;
3052;SDS011;1536;51.098;6.414;2023-04-25T07:32:34;12.85;;;5.53;;
3052;SDS011;1536;51.098;6.414;2023-04-25T07:35:01;11.25;;;6.05;;
3052;SDS011;1536;51.098;6.414;2023-04-25T07:37:28;11.43;;;4.00;;
3052;SDS011;1536;51.098;6.414;2023-04-25T07:39:56;8.95;;;4.30;;
3052;SDS011;1536;51.098;6.414;2023-04-25T07:42:23;9.25;;;4.80;;
3052;SDS011;1536;51.098;6.414;2023-04-25T07:44:50;9.43;;;4.60;;
3052;SDS011;1536;51.098;6.414;2023-04-25T07:47:16;13.50;;;5.38;;
3052;SDS011;1536;51.098;6.414;2023-04-25T07:49:45;12.02;;;4.25;;
3052;SDS011;1536;51.098;6.414;2023-04-25T07:52:11;7.82;;;4.10;;
3052;SDS011;1536;51.098;6.414;2023-04-25T07:54:38;13.02;;;4.40;;
3052;SDS011;1536;51.098;6.414;2023-04-25T07:57:06;12.73;;;4.25;;
3052;SDS011;1536;51.098;6.414;2023-04-25T07:59:33;8.10;;;4.72;;
3052;SDS011;1536;51.098;6.414;2023-04-25T08:02:00;13.40;;;4.95;;
3052;SDS011;1536;51.098;6.414;2023-04-25T08:04:27;11.05;;;4.72;;
3052;SDS011;1536;51.098;6.414;2023-04-25T08:06:54;11.32;;;4.53;;
3052;SDS011;1536;51.098;6.414;2023-04-25T08:09:21;14.90;;;4.80;;
3052;SDS011;1536;51.098;6.414;2023-04-25T08:11:47;6.35;;;4.13;;
3052;SDS011;1536;51.098;6.414;2023-04-25T08:14:16;11.65;;;4.90;;
3052;SDS011;1536;51.098;6.414;2023-04-25T08:16:42;8.40;;;4.95;;
3052;SDS011;1536;51.098;6.414;2023-04-25T08:19:10;7.90;;;4.22;;
3052;SDS011;1536;51.098;6.414;2023-04-25T08:21:37;10.60;;;4.50;;
3052;SDS011;1536;51.098;6.414;2023-04-25T08:24:04;13.20;;;4.90;;
3052;SDS011;1536;51.098;6.414;2023-04-25T08:26:31;5.95;;;3.63;;
3052;SDS011;1536;51.098;6.414;2023-04-25T08:28:59;11.93;;;3.83;;
3052;SDS011;1536;51.098;6.414;2023-04-25T08:31:27;11.00;;;4.00;;
3052;SDS011;1536;51.098;6.414;2023-04-25T08:33:54;9.48;;;3.60;;
3052;SDS011;1536;51.098;6.414;2023-04-25T08:36:21;7.95;;;4.55;;
3052;SDS011;1536;51.098;6.414;2023-04-25T08:38:48;7.35;;;3.75;;
3052;SDS011;1536;51.098;6.414;2023-04-25T08:41:14;11.32;;;4.43;;
3052;SDS011;1536;51.098;6.414;2023-04-25T08:43:42;7.15;;;5.05;;
3052;SDS011;1536;51.098;6.414;2023-04-25T08:46:10;8.23;;;3.70;;
3052;SDS011;1536;51.098;6.414;2023-04-25T08:48:40;11.53;;;4.07;;
3052;SDS011;1536;51.098;6.414;2023-04-25T08:51:08;7.40;;;3.50;;
3052;SDS011;1536;51.098;6.414;2023-04-25T08:53:40;13.75;;;4.10;;
3052;SDS011;1536;51.098;6.414;2023-04-25T08:56:08;5.33;;;3.93;;
3052;SDS011;1536;51.098;6.414;2023-04-25T08:58:35;8.43;;;4.00;;
3052;SDS011;1536;51.098;6.414;2023-04-25T09:01:03;8.35;;;3.83;;
3052;SDS011;1536;51.098;6.414;2023-04-25T09:03:30;8.23;;;3.63;;
3052;SDS011;1536;51.098;6.414;2023-04-25T09:05:58;14.57;;;4.50;;
3052;SDS011;1536;51.098;6.414;2023-04-25T09:08:25;13.27;;;4.70;;
3052;SDS011;1536;51.098;6.414;2023-04-25T09:10:52;9.60;;;4.23;;
3052;SDS011;1536;51.098;6.414;2023-04-25T09:13:24;7.13;;;4.15;;
3052;SDS011;1536;51.098;6.414;2023-04-25T09:15:53;11.75;;;4.00;;
3052;SDS011;1536;51.098;6.414;2023-04-25T09:18:23;8.20;;;4.05;;
3052;SDS011;1536;51.098;6.414;2023-04-25T09:20:53;8.83;;;4.00;;
3052;SDS011;1536;51.098;6.414;2023-04-25T09:23:22;9.80;;;4.50;;
3052;SDS011;1536;51.098;6.414;2023-04-25T09:25:50;6.33;;;3.83;;
3052;SDS011;1536;51.098;6.414;2023-04-25T09:28:22;9.90;;;3.85;;
3052;SDS011;1536;51.098;6.414;2023-04-25T09:30:53;7.82;;;3.90;;
3052;SDS011;1536;51.098;6.414;2023-04-25T09:33:22;5.70;;;3.57;;
3052;SDS011;1536;51.098;6.414;2023-04-25T09:35:53;12.27;;;3.90;;
3052;SDS011;1536;51.098;6.414;2023-04-25T09:38:28;9.43;;;4.17;;
3052;SDS011;1536;51.098;6.414;2023-04-25T09:40:56;9.75;;;4.38;;
3052;SDS011;1536;51.098;6.414;2023-04-25T09:43:23;6.45;;;4.10;;
3052;SDS011;1536;51.098;6.414;2023-04-25T09:45:52;8.63;;;3.60;;
3052;SDS011;1536;51.098;6.414;2023-04-25T09:48:22;7.13;;;3.92;;
3052;SDS011;1536;51.098;6.414;2023-04-25T09:51:03;7.30;;;3.90;;
3052;SDS011;1536;51.098;6.414;2023-04-25T09:53:33;9.43;;;3.27;;
3052;SDS011;1536;51.098;6.414;2023-04-25T09:56:00;8.83;;;3.30;;
3052;SDS011;1536;51.098;6.414;2023-04-25T09:58:30;11.60;;;3.50;;
3052;SDS011;1536;51.098;6.414;2023-04-25T10:00:59;7.67;;;3.50;;
3052;SDS011;1536;51.098;6.414;2023-04-25T10:03:27;4.53;;;3.33;;
3052;SDS011;1536;51.098;6.414;2023-04-25T10:05:56;4.80;;;3.63;;
3052;SDS011;1536;51.098;6.414;2023-04-25T10:08:25;7.90;;;3.43;;
3052;SDS011;1536;51.098;6.414;2023-04-25T10:10:58;13.20;;;3.90;;
3052;SDS011;1536;51.098;6.414;2023-04-25T10:13:26;6.97;;;3.40;;
3052;SDS011;1536;51.098;6.414;2023-04-25T10:15:54;3.20;;;2.90;;
3052;SDS011;1536;51.098;6.414;2023-04-25T10:18:22;7.87;;;3.63;;
3052;SDS011;1536;51.098;6.414;2023-04-25T10:20:50;8.03;;;4.30;;
3052;SDS011;1536;51.098;6.414;2023-04-25T10:23:17;5.25;;;3.53;;
3052;SDS011;1536;51.098;6.414;2023-04-25T10:25:44;4.90;;;3.17;;
3052;SDS011;1536;51.098;6.414;2023-04-25T10:28:13;8.17;;;4.53;;
3052;SDS011;1536;51.098;6.414;2023-04-25T10:30:49;5.93;;;3.23;;
3052;SDS011;1536;51.098;6.414;2023-04-25T10:33:29;4.00;;;3.10;;
3052;SDS011;1536;51.098;6.414;2023-04-25T10:35:58;8.50;;;3.53;;
3052;SDS011;1536;51.098;6.414;2023-04-25T10:38:34;6.47;;;3.30;;
3052;SDS011;1536;51.098;6.414;2023-04-25T10:41:02;4.90;;;3.30;;
3052;SDS011;1536;51.098;6.414;2023-04-25T10:43:35;8.60;;;3.40;;
3052;SDS011;1536;51.098;6.414;2023-04-25T10:46:12;11.43;;;3.40;;
3052;SDS011;1536;51.098;6.414;2023-04-25T10:48:43;6.67;;;3.43;;
3052;SDS011;1536;51.098;6.414;2023-04-25T10:51:15;9.13;;;3.90;;
3052;SDS011;1536;51.098;6.414;2023-04-25T10:53:43;8.30;;;3.58;;
3052;SDS011;1536;51.098;6.414;2023-04-25T10:56:11;8.63;;;3.73;;
3052;SDS011;1536;51.098;6.414;2023-04-25T10:58:43;7.03;;;3.87;;
3052;SDS011;1536;51.098;6.414;2023-04-25T11:01:10;6.32;;;3.20;;
3052;SDS011;1536;51.098;6.414;2023-04-25T11:03:38;6.60;;;3.03;;
3052;SDS011;1536;51.098;6.414;2023-04-25T11:06:07;4.63;;;3.53;;
3052;SDS011;1536;51.098;6.414;2023-04-25T11:08:46;11.50;;;4.17;;
3052;SDS011;1536;51.098;6.414;2023-04-25T11:11:14;10.23;;;3.90;;
3052;SDS011;1536;51.098;6.414;2023-04-25T11:13:43;4.70;;;3.37;;
3052;SDS011;1536;51.098;6.414;2023-04-25T11:16:10;8.43;;;3.33;;
3052;SDS011;1536;51.098;6.414;2023-04-25T11:18:37;5.80;;;3.97;;
3052;SDS011;1536;51.098;6.414;2023-04-25T11:21:03;7.60;;;3.27;;
3052;SDS011;1536;51.098;6.414;2023-04-25T11:23:31;8.57;;;3.50;;
3052;SDS011;1536;51.098;6.414;2023-04-25T11:25:58;5.43;;;3.60;;
3052;SDS011;1536;51.098;6.414;2023-04-25T11:28:26;5.90;;;3.37;;
3052;SDS011;1536;51.098;6.414;2023-04-25T11:30:54;5.20;;;3.60;;
3052;SDS011;1536;51.098;6.414;2023-04-25T11:33:23;3.83;;;3.23;;
3052;SDS011;1536;51.098;6.414;2023-04-25T11:35:51;7.00;;;3.13;;
3052;SDS011;1536;51.098;6.414;2023-04-25T11:38:19;9.30;;;3.73;;
3052;SDS011;1536;51.098;6.414;2023-04-25T11:40:49;7.03;;;3.30;;
3052;SDS011;1536;51.098;6.414;2023-04-25T11:43:17;5.53;;;3.17;;
3052;SDS011;1536;51.098;6.414;2023-04-25T11:45:45;6.43;;;3.20;;
3052;SDS011;1536;51.098;6.414;2023-04-25T11:48:14;5.70;;;3.17;;
3052;SDS011;1536;51.098;6.414;2023-04-25T11:50:40;9.70;;;3.80;;
3052;SDS011;1536;51.098;6.414;2023-04-25T11:53:07;7.90;;;3.57;;
3052;SDS011;1536;51.098;6.414;2023-04-25T11:55:35;3.60;;;3.27;;
3052;SDS011;1536;51.098;6.414;2023-04-25T11:58:03;8.53;;;4.23;;
3052;SDS011;1536;51.098;6.414;2023-04-25T12:00:30;4.63;;;3.40;;
3052;SDS011;1536;51.098;6.414;2023-04-25T12:02:58;4.63;;;3.40;;
3052;SDS011;1536;51.098;6.414;2023-04-25T12:05:27;3.93;;;3.20;;
3052;SDS011;1536;51.098;6.414;2023-04-25T12:07:55;3.20;;;2.80;;
3052;SDS011;1536;51.098;6.414;2023-04-25T12:10:23;4.57;;;3.60;;
3052;SDS011;1536;51.098;6.414;2023-04-25T12:12:51;6.57;;;3.93;;
3052;SDS011;1536;51.098;6.414;2023-04-25T12:15:23;9.33;;;3.50;;
3052;SDS011;1536;51.098;6.414;2023-04-25T12:17:51;5.20;;;3.80;;
3052;SDS011;1536;51.098;6.414;2023-04-25T12:20:20;7.63;;;3.20;;
3052;SDS011;1536;51.098;6.414;2023-04-25T12:22:51;5.53;;;3.70;;
3052;SDS011;1536;51.098;6.414;2023-04-25T12:25:34;4.77;;;3.40;;
3052;SDS011;1536;51.098;6.414;2023-04-25T12:28:09;4.83;;;3.53;;
3052;SDS011;1536;51.098;6.414;2023-04-25T12:30:51;4.33;;;3.03;;
3052;SDS011;1536;51.098;6.414;2023-04-25T12:33:19;7.00;;;3.80;;
3052;SDS011;1536;51.098;6.414;2023-04-25T12:35:46;4.03;;;2.90;;
3052;SDS011;1536;51.098;6.414;2023-04-25T12:38:21;5.63;;;3.00;;
3052;SDS011;1536;51.098;6.414;2023-04-25T12:40:48;3.57;;;2.70;;
3052;SDS011;1536;51.098;6.414;2023-04-25T12:43:15;8.67;;;3.00;;
3052;SDS011;1536;51.098;6.414;2023-04-25T12:45:41;7.33;;;3.37;;
3052;SDS011;1536;51.098;6.414;2023-04-25T12:48:08;6.47;;;2.90;;
3052;SDS011;1536;51.098;6.414;2023-04-25T12:50:35;4.47;;;2.80;;
3052;SDS011;1536;51.098;6.414;2023-04-25T12:53:02;3.63;;;2.90;;
3052;SDS011;1536;51.098;6.414;2023-04-25T12:55:30;4.03;;;2.90;;
3052;SDS011;1536;51.098;6.414;2023-04-25T12:57:57;3.80;;;2.50;;
3052;SDS011;1536;51.098;6.414;2023-04-25T13:00:23;3.40;;;2.67;;
3052;SDS011;1536;51.098;6.414;2023-04-25T13:02:51;5.50;;;2.93;;
3052;SDS011;1536;51.098;6.414;2023-04-25T13:05:18;6.70;;;2.80;;
3052;SDS011;1536;51.098;6.414;2023-04-25T13:07:45;11.70;;;3.50;;
3052;SDS011;1536;51.098;6.414;2023-04-25T13:10:11;3.03;;;2.60;;
3052;SDS011;1536;51.098;6.414;2023-04-25T13:12:39;4.57;;;2.73;;
3052;SDS011;1536;51.098;6.414;2023-04-25T13:15:06;4.90;;;3.10;;
3052;SDS011;1536;51.098;6.414;2023-04-25T13:17:36;4.60;;;3.00;;
3052;SDS011;1536;51.098;6.414;2023-04-25T13:20:03;3.97;;;3.33;;
3052;SDS011;1536;51.098;6.414;2023-04-25T13:22:33;4.93;;;3.20;;
3052;SDS011;1536;51.098;6.414;2023-04-25T13:25:01;3.27;;;2.97;;
3052;SDS011;1536;51.098;6.414;2023-04-25T13:27:29;5.07;;;3.40;;
3052;SDS011;1536;51.098;6.414;2023-04-25T13:29:58;7.03;;;3.03;;
3052;SDS011;1536;51.098;6.414;2023-04-25T13:32:25;7.77;;;3.53;;
3052;SDS011;1536;51.098;6.414;2023-04-25T13:34:54;5.93;;;3.07;;
3052;SDS011;1536;51.098;6.414;2023-04-25T13:37:21;4.63;;;3.23;;
3052;SDS011;1536;51.098;6.414;2023-04-25T13:39:49;4.43;;;2.80;;
3052;SDS011;1536;51.098;6.414;2023-04-25T13:42:16;6.40;;;3.60;;
3052;SDS011;1536;51.098;6.414;2023-04-25T13:44:43;4.73;;;3.20;;
3052;SDS011;1536;51.098;6.414;2023-04-25T13:47:12;6.03;;;3.10;;
3052;SDS011;1536;51.098;6.414;2023-04-25T13:49:40;4.43;;;2.90;;
3052;SDS011;1536;51.098;6.414;2023-04-25T13:52:07;4.30;;;3.00;;
3052;SDS011;1536;51.098;6.414;2023-04-25T13:54:34;4.13;;;2.70;;
3052;SDS011;1536;51.098;6.414;2023-04-25T13:57:01;3.97;;;3.23;;
3052;SDS011;1536;51.098;6.414;2023-04-25T13:59:28;4.23;;;3.03;;
3052;SDS011;1536;51.098;6.414;2023-04-25T14:01:54;3.20;;;2.60;;
3052;SDS011;1536;51.098;6.414;2023-04-25T14:04:22;4.97;;;2.90;;
3052;SDS011;1536;51.098;6.414;2023-04-25T14:06:50;4.37;;;2.70;;
3052;SDS011;1536;51.098;6.414;2023-04-25T14:09:17;3.30;;;2.90;;
3052;SDS011;1536;51.098;6.414;2023-04-25T14:11:45;3.63;;;2.80;;
3052;SDS011;1536;51.098;6.414;2023-04-25T14:14:12;3.00;;;2.60;;
3052;SDS011;1536;51.098;6.414;2023-04-25T14:16:41;5.67;;;2.57;;
3052;SDS011;1536;51.098;6.414;2023-04-25T14:19:08;3.40;;;2.47;;
3052;SDS011;1536;51.098;6.414;2023-04-25T14:21:36;4.80;;;2.60;;
3052;SDS011;1536;51.098;6.414;2023-04-25T14:24:02;4.13;;;2.57;;
3052;SDS011;1536;51.098;6.414;2023-04-25T14:26:29;3.30;;;2.67;;
3052;SDS011;1536;51.098;6.414;2023-04-25T14:28:56;4.63;;;3.10;;
3052;SDS011;1536;51.098;6.414;2023-04-25T14:31:23;3.83;;;2.63;;
3052;SDS011;1536;51.098;6.414;2023-04-25T14:33:50;5.37;;;2.93;;
3052;SDS011;1536;51.098;6.414;2023-04-25T14:36:16;4.80;;;2.20;;
3052;SDS011;1536;51.098;6.414;2023-04-25T14:38:44;2.73;;;2.50;;
3052;SDS011;1536;51.098;6.414;2023-04-25T14:41:11;9.90;;;3.23;;
3052;SDS011;1536;51.098;6.414;2023-04-25T14:43:38;3.97;;;3.10;;
3052;SDS011;1536;51.098;6.414;2023-04-25T14:46:06;5.47;;;3.00;;
3052;SDS011;1536;51.098;6.414;2023-04-25T14:48:33;12.60;;;3.23;;
3052;SDS011;1536;51.098;6.414;2023-04-25T14:51:00;3.03;;;2.70;;
3052;SDS011;1536;51.098;6.414;2023-04-25T14:53:27;4.87;;;3.00;;
3052;SDS011;1536;51.098;6.414;2023-04-25T14:55:55;3.23;;;2.87;;
3052;SDS011;1536;51.098;6.414;2023-04-25T14:58:22;4.33;;;2.83;;
3052;SDS011;1536;51.098;6.414;2023-04-25T15:00:49;4.07;;;3.13;;
3052;SDS011;1536;51.098;6.414;2023-04-25T15:03:16;3.77;;;2.73;;
3052;SDS011;1536;51.098;6.414;2023-04-25T15:05:43;7.67;;;3.17;;
3052;SDS011;1536;51.098;6.414;2023-04-25T15:08:10;3.07;;;2.63;;
3052;SDS011;1536;51.098;6.414;2023-04-25T15:10:36;5.03;;;3.20;;
3052;SDS011;1536;51.098;6.414;2023-04-25T15:13:05;5.20;;;3.00;;